createdAt,value
2023-04-16T00:02:58.493Z,97690.22
2023-04-16T00:23:01.190Z,97688.59
2023-04-16T00:43:03.810Z,97688.94
2023-04-16T01:03:06.543Z,97696.94
2023-04-16T01:23:09.368Z,97710.78
2023-04-16T01:43:12.022Z,97715.91
2023-04-16T02:03:14.754Z,97724.09
2023-04-16T02:23:17.527Z,97748.31
2023-04-16T02:43:20.115Z,97778.25
2023-04-16T03:03:22.816Z,97764.16
2023-04-16T03:23:25.645Z,97776.63
2023-04-16T03:43:28.878Z,97806.09
2023-04-16T04:03:31.675Z,97819.84
2023-04-16T04:23:34.553Z,97850.09
2023-04-16T04:43:37.175Z,97863.88
2023-04-16T05:03:39.858Z,97885.28
2023-04-16T05:23:42.510Z,97909.50
2023-04-16T05:43:45.173Z,97937.72
2023-04-16T06:03:47.971Z,97940.75
2023-04-16T06:23:50.649Z,97959.37
2023-04-16T06:43:53.397Z,97976.25
2023-04-16T07:03:56.184Z,98006.09
2023-04-16T07:23:58.962Z,97985.16
2023-04-16T07:44:02.200Z,98005.66
2023-04-16T08:04:04.907Z,98020.69
2023-04-16T08:24:07.704Z,98033.41
2023-04-16T08:44:10.430Z,98054.62
2023-04-16T09:04:13.228Z,98071.44
2023-04-16T09:24:16.432Z,98064.75
2023-04-16T09:44:19.064Z,98090.56
2023-04-16T10:04:23.618Z,98087.25
2023-04-16T10:24:26.907Z,98087.25
2023-04-16T10:44:29.530Z,98094.31
2023-04-16T11:04:32.483Z,98108.22
2023-04-16T11:24:35.580Z,98099.03
2023-04-16T11:44:38.309Z,98110.19
2023-04-16T12:04:40.945Z,98107.72
2023-04-16T12:24:43.601Z,98112.00
2023-04-16T12:44:46.240Z,98115.78
2023-04-16T13:04:48.923Z,98106.41
2023-04-16T13:24:51.548Z,98099.16
2023-04-16T13:44:56.277Z,98107.81
2023-04-16T14:04:58.928Z,98097.00
2023-04-16T14:25:02.303Z,98086.34
2023-04-16T14:45:07.680Z,98082.84
2023-04-16T15:05:11.822Z,98082.28
2023-04-16T15:25:14.642Z,98079.97
2023-04-16T15:45:17.304Z,98082.41
2023-04-16T16:05:20.049Z,98095.87
2023-04-16T16:25:22.763Z,98099.19
2023-04-16T16:45:27.459Z,98110.56
2023-04-16T17:05:30.162Z,98120.38
2023-04-16T17:25:32.779Z,98127.03
2023-04-16T17:45:35.481Z,98141.41
2023-04-16T18:05:38.152Z,98166.75
2023-04-16T18:25:40.974Z,98194.50
2023-04-16T18:45:43.707Z,98207.28
2023-04-16T19:05:46.968Z,98231.44
2023-04-16T19:25:49.938Z,98241.28
2023-04-16T19:45:54.890Z,98246.91
2023-04-16T20:05:57.569Z,98241.75
2023-04-16T20:26:00.353Z,98243.62
2023-04-16T20:46:04.286Z,98253.94
2023-04-16T21:06:06.936Z,98244.56
2023-04-16T21:26:09.542Z,98242.66
2023-04-16T21:46:12.427Z,98243.00
2023-04-16T22:06:15.615Z,98240.59
2023-04-16T22:26:18.231Z,98250.09
2023-04-16T22:46:26.133Z,98246.22
2023-04-16T23:06:29.233Z,98251.75
2023-04-16T23:26:31.960Z,98239.63
2023-04-16T23:46:34.585Z,98231.13
